Stations météo

Publicité
Cap Gris Nez, France (7004): Température de l'air & dewpoint: 16.07.2019 18:00:00 - 22.07.2019 18:00:00 (CEST)Cap Gris Nez, France (7004): Vitesse du vent & gusts: 16.07.2019 18:00:00 - 22.07.2019 18:00:00 (CEST)Cap Gris Nez, France (7004): Direction du vent: 16.07.2019 18:00:00 - 22.07.2019 18:00:00 (CEST)Cap Gris Nez, France (7004): Quantités de précipitations: 16.07.2019 18:00:00 - 22.07.2019 18:00:00 (CEST)
Date & Time tt [°C] td [°C] ff [km/h] ff [knt] fx [km/h] fx [knt] dd rr [mm]
22.07.2019 18:00:00 - - - - - - - -
22.07.2019 17:00:00 20,0 16,6 22 12 29 16 SSW 0,0
22.07.2019 16:00:00 20,2 16,6 24 13 34 18 SSW 0,0
22.07.2019 15:00:00 19,4 16,2 26 14 35 19 SW 0,0
22.07.2019 14:00:00 19,3 16,1 24 13 37 20 SW -
22.07.2019 13:00:00 19,3 16,5 24 13 39 21 SW 0,0
22.07.2019 12:00:00 19,3 16,3 22 12 41 22 SW 0,0
22.07.2019 11:00:00 18,8 15,8 24 13 39 21 SW 0,0
22.07.2019 10:00:00 18,3 15,5 28 15 41 22 SW 0,0
22.07.2019 09:00:00 17,8 15,6 24 13 41 22 SW 0,0
22.07.2019 08:00:00 17,5 15,3 28 15 42 23 SW -
22.07.2019 07:00:00 17,6 14,7 34 18 44 24 SW 0,0
22.07.2019 06:00:00 17,5 14,8 26 14 42 23 SW 0,0
22.07.2019 05:00:00 17,8 14,9 24 13 39 21 SW 0,0
22.07.2019 04:00:00 17,8 14,5 31 17 39 21 SSW 0,0
22.07.2019 03:00:00 17,5 14,9 24 13 31 17 SSW 0,0
22.07.2019 02:00:00 17,6 15,2 18 10 31 17 SW -
22.07.2019 01:00:00 16,5 14,7 16 9 26 14 SSW 0,0
22.07.2019 00:00:00 17,3 14,8 21 11 28 15 SSW 0,0
21.07.2019 23:00:00 17,3 13,8 18 10 26 14 SSW 0,0
21.07.2019 22:00:00 17,0 13,9 16 9 29 16 SW 0,0
21.07.2019 21:00:00 17,3 13,8 18 10 31 17 SW 0,0
21.07.2019 20:00:00 17,6 14,1 16 9 37 20 SW -
21.07.2019 19:00:00 17,9 14,4 24 13 37 20 SW 0,0
21.07.2019 18:00:00 19,0 14,9 21 11 37 20 SW 0,0
21.07.2019 17:00:00 18,7 14,2 18 10 35 19 SW 0,0
21.07.2019 16:00:00 19,3 14,3 24 13 39 21 SW 0,0
21.07.2019 15:00:00 18,5 15,2 29 16 42 23 WSW 0,0
21.07.2019 14:00:00 18,6 15,1 24 13 41 22 SW -
21.07.2019 13:00:00 18,7 15,0 22 12 31 17 SW 0,0
21.07.2019 12:00:00 18,4 14,5 13 7 22 12 SW 0,0
21.07.2019 11:00:00 17,8 14,3 15 8 24 13 SW 0,0
21.07.2019 10:00:00 17,5 14,2 9 5 18 10 WSW 0,0
21.07.2019 09:00:00 16,5 13,4 15 8 26 14 W 0,0
21.07.2019 08:00:00 16,3 13,2 21 11 28 15 W -
21.07.2019 07:00:00 16,0 12,9 22 12 29 16 W 0,0
21.07.2019 06:00:00 16,4 12,9 22 12 34 18 W 0,0
21.07.2019 05:00:00 16,5 13,4 28 15 39 21 W 0,0
21.07.2019 04:00:00 17,0 13,3 28 15 37 20 W 0,0
21.07.2019 03:00:00 16,9 14,9 28 15 37 20 W 0,0
21.07.2019 02:00:00 17,0 16,2 28 15 37 20 W -
21.07.2019 01:00:00 16,7 15,7 28 15 41 22 WSW 0,0
21.07.2019 00:00:00 16,8 15,7 34 18 46 25 WSW 0,0
20.07.2019 23:00:00 16,7 15,4 39 21 54 29 WSW 0,0
20.07.2019 22:00:00 16,9 15,2 37 20 59 32 SW 0,0
20.07.2019 21:00:00 17,8 15,2 34 18 54 29 SW 0,0
20.07.2019 20:00:00 18,3 15,5 34 18 57 31 SW -
20.07.2019 19:00:00 18,4 15,6 34 18 59 32 SW 0,0
20.07.2019 18:00:00 18,8 15,8 44 24 65 35 SW 0,0
20.07.2019 17:00:00 18,9 16,3 39 21 65 35 SW 0,0
20.07.2019 16:00:00 18,8 16,6 34 18 67 36 SW 0,0
20.07.2019 15:00:00 18,6 16,6 41 22 63 34 SW 0,0
20.07.2019 14:00:00 18,5 16,8 39 21 65 35 SW -
20.07.2019 13:00:00 18,4 16,9 41 22 59 32 SW 0,0
20.07.2019 12:00:00 18,9 17,4 34 18 63 34 SW 0,0
20.07.2019 11:00:00 18,7 17,5 37 20 54 29 SSW 0,2
20.07.2019 10:00:00 18,6 17,1 28 15 44 24 SSW 0,0
20.07.2019 09:00:00 18,1 16,8 31 17 46 25 SSW 0,0
20.07.2019 08:00:00 17,3 16,3 29 16 44 24 SSW -
20.07.2019 07:00:00 17,2 16,7 22 12 41 22 SSW 0,2
20.07.2019 06:00:00 17,4 17,1 21 11 37 20 S 3,0
20.07.2019 05:00:00 18,2 17,0 26 14 39 21 WSW 0,8
20.07.2019 04:00:00 18,1 16,6 11 6 39 21 SSW 0,6
20.07.2019 03:00:00 20,7 14,6 29 16 44 24 S 0,0
20.07.2019 02:00:00 18,1 15,0 21 11 26 14 SSE -
20.07.2019 01:00:00 17,7 15,1 13 7 16 9 SE 0,0
20.07.2019 00:00:00 18,9 15,8 11 6 22 12 S 0,0
19.07.2019 23:00:00 18,9 16,5 16 9 34 18 SSW 0,0
19.07.2019 22:00:00 18,8 16,6 22 12 31 17 S 0,0
19.07.2019 21:00:00 18,7 15,8 22 12 37 20 SSW 0,0
19.07.2019 20:00:00 18,7 16,8 28 15 41 22 SSW -
19.07.2019 19:00:00 18,3 16,8 29 16 44 24 SW 0,0
19.07.2019 18:00:00 19,4 14,6 29 16 42 23 SW 0,0
19.07.2019 17:00:00 19,1 14,4 26 14 39 21 SSW 0,0
19.07.2019 16:00:00 18,6 14,5 29 16 41 22 SSW 0,0
19.07.2019 15:00:00 19,8 14,8 29 16 42 23 SSW 0,0
19.07.2019 14:00:00 18,2 14,1 34 18 44 24 SSW -
19.07.2019 13:00:00 18,1 15,2 31 17 46 25 SW 0,0
19.07.2019 12:00:00 17,6 15,0 29 16 41 22 SW 0,0
19.07.2019 11:00:00 17,0 15,3 28 15 41 22 SW 0,0
19.07.2019 10:00:00 16,8 15,5 24 13 31 17 SSW 0,0
19.07.2019 09:00:00 16,8 15,5 18 10 29 16 SW 0,0
19.07.2019 08:00:00 17,0 15,7 16 9 29 16 SW -
19.07.2019 07:00:00 15,7 12,6 15 8 21 11 S 0,0
19.07.2019 06:00:00 16,0 11,8 5 3 21 11 WSW 0,0
19.07.2019 05:00:00 16,3 13,0 15 8 22 12 WSW 0,0
19.07.2019 04:00:00 16,5 13,6 16 9 31 17 W 0,0
19.07.2019 03:00:00 16,8 15,3 26 14 37 20 W 0,0
19.07.2019 02:00:00 16,9 15,8 34 18 44 24 W -
19.07.2019 01:00:00 16,7 15,4 35 19 46 25 WSW 0,0
19.07.2019 00:00:00 16,5 15,0 31 17 42 23 WSW 0,0
18.07.2019 23:00:00 16,5 15,0 29 16 46 25 SW 0,0
18.07.2019 22:00:00 16,8 15,0 28 15 44 24 SW 0,0
18.07.2019 21:00:00 16,9 15,1 28 15 44 24 SW 0,0
18.07.2019 20:00:00 17,1 15,4 28 15 42 23 SW -
18.07.2019 19:00:00 17,2 15,5 31 17 52 28 SW 0,0
18.07.2019 18:00:00 17,5 15,8 34 18 48 26 SW 0,0
18.07.2019 17:00:00 17,8 15,6 29 16 52 28 SW 0,0
18.07.2019 16:00:00 17,3 16,0 37 20 65 35 SW 0,0
18.07.2019 15:00:00 17,6 16,1 42 23 70 38 SW 0,0
18.07.2019 14:00:00 17,2 16,2 48 26 67 36 SW -
18.07.2019 13:00:00 16,9 16,3 35 19 55 30 SW 0,2
18.07.2019 12:00:00 16,4 15,9 35 19 52 28 SW 0,0
18.07.2019 11:00:00 17,2 15,0 35 19 48 26 SW 0,0
18.07.2019 10:00:00 17,1 15,4 26 14 55 30 SW 0,0
18.07.2019 09:00:00 16,8 15,7 37 20 55 30 WSW 0,0
18.07.2019 08:00:00 16,6 15,6 31 17 46 25 WSW -
18.07.2019 07:00:00 16,3 15,2 34 18 46 25 WSW 0,0
18.07.2019 06:00:00 16,5 15,5 28 15 46 25 SW 0,0
18.07.2019 05:00:00 16,0 14,2 21 11 44 24 SW 0,0
18.07.2019 04:00:00 16,0 14,7 26 14 41 22 SW 0,0
18.07.2019 03:00:00 16,2 15,1 26 14 39 21 SW 0,0
18.07.2019 02:00:00 16,1 14,8 26 14 42 23 SW -
18.07.2019 01:00:00 16,4 14,1 24 13 37 20 SW 0,0
18.07.2019 00:00:00 16,6 13,5 18 10 34 18 SW 0,0
17.07.2019 23:00:00 16,8 13,9 22 12 29 16 SSW 0,0
17.07.2019 22:00:00 16,9 13,6 18 10 28 15 SW 0,0
17.07.2019 21:00:00 17,0 13,1 16 9 29 16 SW 0,0
17.07.2019 20:00:00 17,6 13,9 15 8 24 13 SW -
17.07.2019 19:00:00 18,1 14,2 11 6 16 9 SW 0,0
17.07.2019 18:00:00 18,5 15,4 11 6 15 8 WSW 0,0
17.07.2019 17:00:00 18,7 15,9 8 4 11 6 NW 0,0
17.07.2019 16:00:00 19,9 15,9 8 4 18 10 W 0,0
17.07.2019 15:00:00 20,2 15,0 8 4 13 7 W 0,0
17.07.2019 14:00:00 20,1 14,0 8 4 13 7 W -
17.07.2019 13:00:00 - - - - - - - -
17.07.2019 12:00:00 19,6 14,4 15 8 22 12 WSW 0,0
17.07.2019 11:00:00 19,0 13,6 9 5 15 8 SW 0,0
17.07.2019 10:00:00 18,4 12,6 9 5 15 8 SSW 0,0
17.07.2019 09:00:00 17,1 12,4 8 4 11 6 SSW 0,0
17.07.2019 08:00:00 16,6 13,3 8 4 15 8 S -
17.07.2019 07:00:00 14,3 10,7 13 7 15 8 S 0,0
17.07.2019 06:00:00 14,4 11,4 8 4 13 7 S 0,0
17.07.2019 05:00:00 15,0 12,5 8 4 15 8 SSW 0,0
17.07.2019 04:00:00 14,8 11,6 11 6 15 8 ESE 0,0
17.07.2019 03:00:00 15,8 11,2 9 5 16 9 E 0,0
17.07.2019 02:00:00 15,1 12,2 11 6 18 10 E -
17.07.2019 01:00:00 15,6 13,8 13 7 15 8 ENE 0,0
17.07.2019 00:00:00 15,8 14,5 9 5 11 6 NE 0,0
16.07.2019 23:00:00 16,0 14,0 8 4 11 6 NE 0,0
16.07.2019 22:00:00 16,8 14,3 8 4 11 6 N 0,0
16.07.2019 21:00:00 17,7 14,2 8 4 16 9 NNW 0,0
16.07.2019 20:00:00 18,3 14,0 11 6 16 9 NW -
16.07.2019 19:00:00 18,8 13,4 11 6 18 10 WNW 0,0
16.07.2019 18:00:00 18,9 13,1 11 6 18 10 WNW 0,0

tt = Température de l'air
td = dewpoint
ff = Vitesse du vent
fx = gusts
dd = Direction du vent
rr = Quantités de précipitations

stations d'obs. à proximité